createdAt,value
2018-04-08T00:00:38.564Z,36.00
2018-04-08T00:03:05.455Z,36.00
2018-04-08T00:05:32.989Z,35.30
2018-04-08T00:07:59.830Z,35.90
2018-04-08T00:10:26.672Z,35.90
2018-04-08T00:12:53.475Z,35.90
2018-04-08T00:15:21.841Z,35.90
2018-04-08T00:17:49.494Z,36.10
2018-04-08T00:20:16.267Z,36.00
2018-04-08T00:22:43.996Z,36.10
2018-04-08T00:25:11.725Z,36.20
2018-04-08T00:27:38.629Z,36.20
2018-04-08T00:30:05.420Z,36.30
2018-04-08T00:32:32.182Z,36.30
2018-04-08T00:34:59.087Z,36.30
2018-04-08T00:37:25.889Z,36.30
2018-04-08T00:39:52.646Z,36.50
2018-04-08T00:42:20.928Z,36.60
2018-04-08T00:44:48.624Z,36.70
2018-04-08T00:47:15.497Z,36.80
2018-04-08T00:49:42.532Z,36.90
2018-04-08T00:52:10.824Z,37.20
2018-04-08T00:54:38.378Z,36.90
2018-04-08T00:57:05.951Z,36.80
2018-04-08T00:59:34.380Z,36.90
2018-04-08T01:02:01.442Z,36.90
2018-04-08T01:04:28.236Z,37.10
2018-04-08T01:06:55.782Z,37.10
2018-04-08T01:09:22.726Z,37.10
2018-04-08T01:11:49.527Z,37.10
2018-04-08T01:14:17.369Z,37.20
2018-04-08T01:16:45.077Z,37.20
2018-04-08T01:19:11.851Z,37.20
2018-04-08T01:21:38.713Z,37.30
2018-04-08T01:24:05.501Z,37.30
2018-04-08T01:26:34.010Z,38.60
2018-04-08T01:29:00.816Z,37.40
2018-04-08T01:31:28.334Z,37.50
2018-04-08T01:33:55.095Z,37.20
2018-04-08T01:36:22.147Z,37.30
2018-04-08T01:38:49.911Z,37.20
2018-04-08T01:41:16.724Z,37.60
2018-04-08T01:43:43.507Z,37.40
2018-04-08T01:46:10.463Z,37.30
2018-04-08T01:48:37.228Z,37.30
2018-04-08T01:51:04.750Z,37.80
2018-04-08T01:53:31.533Z,37.50
2018-04-08T01:55:59.371Z,37.50
2018-04-08T01:58:27.135Z,37.70
2018-04-08T02:00:54.262Z,37.60
2018-04-08T02:03:21.031Z,37.50
2018-04-08T02:05:47.771Z,37.70
2018-04-08T02:08:14.522Z,37.80
2018-04-08T02:10:42.392Z,37.60
2018-04-08T02:13:09.981Z,37.70
2018-04-08T02:15:36.747Z,37.60
2018-04-08T02:18:03.526Z,38.10
2018-04-08T02:20:30.320Z,37.80
2018-04-08T02:22:57.092Z,37.60
2018-04-08T02:25:24.818Z,37.60
2018-04-08T02:27:52.073Z,37.70
2018-04-08T02:30:19.368Z,37.90
2018-04-08T02:32:47.120Z,38.70
2018-04-08T02:35:13.893Z,38.00
2018-04-08T02:37:41.652Z,38.00
2018-04-08T02:40:08.485Z,38.00
2018-04-08T02:42:35.246Z,38.10
2018-04-08T02:45:02.120Z,38.30
2018-04-08T02:47:29.663Z,38.40
2018-04-08T02:49:58.108Z,38.10
2018-04-08T02:52:25.044Z,37.90
2018-04-08T02:54:52.141Z,38.10
2018-04-08T02:57:18.987Z,38.20
2018-04-08T02:59:46.060Z,37.90
2018-04-08T03:02:12.862Z,38.20
2018-04-08T03:04:40.735Z,38.30
2018-04-08T03:07:07.576Z,38.20
2018-04-08T03:09:34.387Z,38.30
2018-04-08T03:12:02.031Z,38.40
2018-04-08T03:14:29.105Z,38.40
2018-04-08T03:16:57.448Z,38.40
2018-04-08T03:19:24.526Z,38.20
2018-04-08T03:21:51.328Z,38.30
2018-04-08T03:24:18.147Z,39.40
2018-04-08T03:26:45.042Z,38.60
2018-04-08T03:29:12.006Z,38.60
2018-04-08T03:31:38.792Z,38.50
2018-04-08T03:34:06.640Z,38.60
2018-04-08T03:36:33.691Z,38.80
2018-04-08T03:39:00.498Z,38.80
2018-04-08T03:41:27.236Z,38.80
2018-04-08T03:43:54.004Z,38.70
2018-04-08T03:46:20.781Z,38.60
2018-04-08T03:48:47.741Z,38.80
2018-04-08T03:51:15.619Z,38.80
2018-04-08T03:53:43.166Z,38.80
2018-04-08T03:56:10.069Z,39.10
2018-04-08T03:58:36.922Z,39.10
2018-04-08T04:01:03.896Z,38.90
2018-04-08T04:03:31.704Z,39.10
2018-04-08T04:05:59.464Z,39.00
2018-04-08T04:08:26.991Z,39.20
2018-04-08T04:10:53.889Z,38.80
2018-04-08T04:13:22.240Z,38.90
2018-04-08T04:15:49.249Z,39.10
2018-04-08T04:18:34.734Z,39.10
2018-04-08T04:21:20.124Z,39.00
2018-04-08T04:24:06.191Z,39.50
2018-04-08T04:26:33.004Z,38.90
2018-04-08T04:29:00.672Z,39.50
2018-04-08T04:31:29.311Z,40.20
2018-04-08T04:33:56.249Z,39.50
2018-04-08T04:36:23.095Z,39.50
2018-04-08T04:38:49.905Z,39.20
2018-04-08T04:41:17.511Z,39.60
2018-04-08T04:43:44.340Z,38.50
2018-04-08T04:46:12.367Z,39.60
2018-04-08T04:48:39.896Z,39.00
2018-04-08T04:51:06.793Z,39.40
2018-04-08T04:53:34.672Z,39.60
2018-04-08T04:56:02.553Z,39.60
2018-04-08T04:58:29.593Z,39.70
2018-04-08T05:00:57.216Z,39.30
2018-04-08T05:03:23.964Z,39.20
2018-04-08T05:05:50.838Z,39.50
2018-04-08T05:08:17.753Z,39.70
2018-04-08T05:10:45.470Z,39.50
2018-04-08T05:13:13.106Z,39.50
2018-04-08T05:15:39.995Z,39.50
2018-04-08T05:18:07.862Z,39.80
2018-04-08T05:20:35.381Z,39.60
2018-04-08T05:23:03.724Z,39.60
2018-04-08T05:25:31.195Z,39.40
2018-04-08T05:27:58.312Z,39.40
2018-04-08T05:30:25.098Z,39.50
2018-04-08T05:32:51.918Z,40.00
2018-04-08T05:35:19.468Z,39.40
2018-04-08T05:37:47.787Z,39.60
2018-04-08T05:40:15.128Z,39.20
2018-04-08T05:42:42.832Z,39.70
2018-04-08T05:45:09.637Z,39.90
2018-04-08T05:47:37.220Z,39.50
2018-04-08T05:50:05.161Z,39.60
2018-04-08T05:52:32.418Z,39.60
2018-04-08T05:54:59.242Z,39.80
2018-04-08T05:57:26.120Z,39.60
2018-04-08T05:59:53.753Z,39.70
2018-04-08T06:02:20.538Z,39.80
2018-04-08T06:04:48.071Z,39.70
2018-04-08T06:07:14.925Z,39.60
2018-04-08T06:09:42.811Z,40.10
2018-04-08T06:12:10.273Z,39.70
2018-04-08T06:14:37.064Z,40.20
2018-04-08T06:17:03.877Z,40.40
2018-04-08T06:19:30.622Z,40.30
2018-04-08T06:21:57.617Z,40.40
2018-04-08T06:24:24.407Z,40.20
2018-04-08T06:26:51.418Z,40.10
2018-04-08T06:29:18.184Z,40.30
2018-04-08T06:31:44.984Z,40.00
2018-04-08T06:34:13.020Z,38.70
2018-04-08T06:36:39.801Z,37.80
2018-04-08T06:39:07.362Z,36.40
2018-04-08T06:41:35.171Z,35.80
2018-04-08T06:44:02.101Z,35.70
2018-04-08T06:46:29.018Z,35.20
2018-04-08T06:48:57.208Z,34.50
2018-04-08T06:51:24.773Z,33.90
2018-04-08T06:53:51.600Z,34.10
2018-04-08T06:56:18.400Z,33.50
2018-04-08T06:58:45.202Z,33.60
2018-04-08T07:01:12.148Z,33.80
2018-04-08T07:03:39.089Z,33.90
2018-04-08T07:06:06.822Z,33.80
2018-04-08T07:08:34.072Z,33.00
2018-04-08T07:11:00.949Z,32.70
2018-04-08T07:13:27.833Z,32.60
2018-04-08T07:15:54.784Z,33.00
2018-04-08T07:18:21.673Z,33.20
2018-04-08T07:20:49.336Z,33.80
2018-04-08T07:23:17.605Z,33.70
2018-04-08T07:25:44.789Z,33.40
2018-04-08T07:28:11.806Z,33.70
2018-04-08T07:30:39.424Z,33.70
2018-04-08T07:33:06.229Z,33.90
2018-04-08T07:35:33.108Z,34.00
2018-04-08T07:38:00.398Z,33.80
2018-04-08T07:40:27.200Z,34.40
2018-04-08T07:42:54.020Z,34.00
2018-04-08T07:45:21.749Z,34.80
2018-04-08T07:47:48.683Z,34.50
2018-04-08T07:50:15.444Z,34.40
2018-04-08T07:52:42.306Z,35.30
2018-04-08T07:55:09.148Z,35.20
2018-04-08T07:57:36.123Z,35.40
2018-04-08T08:00:03.831Z,36.30
2018-04-08T08:02:31.412Z,35.50
2018-04-08T08:04:58.990Z,35.90
2018-04-08T08:07:26.779Z,35.60
2018-04-08T08:09:53.946Z,37.50
2018-04-08T08:12:20.741Z,38.50
2018-04-08T08:14:47.613Z,38.80
2018-04-08T08:17:14.471Z,38.60
2018-04-08T08:19:41.336Z,39.50
2018-04-08T08:22:08.205Z,39.50
2018-04-08T08:24:34.995Z,38.90
2018-04-08T08:27:01.836Z,38.10
2018-04-08T08:29:28.750Z,38.80
2018-04-08T08:31:55.968Z,38.10
2018-04-08T08:34:22.925Z,38.80
2018-04-08T08:36:49.889Z,38.80
2018-04-08T08:39:16.939Z,38.90
2018-04-08T08:41:43.996Z,38.50
2018-04-08T08:44:11.546Z,39.10
2018-04-08T08:46:38.470Z,38.70
2018-04-08T08:49:05.535Z,38.80
2018-04-08T08:51:32.354Z,40.00
2018-04-08T08:53:59.233Z,39.00
2018-04-08T08:56:26.816Z,39.40
2018-04-08T08:58:55.607Z,39.00
2018-04-08T09:01:23.229Z,39.10
2018-04-08T09:03:51.023Z,38.90
2018-04-08T09:06:17.813Z,39.40
2018-04-08T09:08:45.364Z,39.20
2018-04-08T09:11:13.143Z,39.20
2018-04-08T09:13:40.670Z,39.20
2018-04-08T09:16:07.980Z,39.20
2018-04-08T09:18:34.848Z,39.90
2018-04-08T09:21:04.183Z,39.70
2018-04-08T09:26:40.497Z,39.60
2018-04-08T09:29:07.410Z,39.30
2018-04-08T09:31:34.312Z,39.90
2018-04-08T09:34:01.520Z,38.20
2018-04-08T09:36:28.537Z,38.10
2018-04-08T09:38:55.403Z,38.60
2018-04-08T09:41:22.298Z,38.30
2018-04-08T09:43:49.202Z,38.80
2018-04-08T09:46:16.196Z,38.70
2018-04-08T09:48:43.155Z,39.00
2018-04-08T09:51:10.750Z,39.00
2018-04-08T09:53:38.442Z,39.00
2018-04-08T09:56:05.342Z,38.60
2018-04-08T09:58:39.351Z,39.00
2018-04-08T10:01:13.249Z,40.10
2018-04-08T10:03:41.029Z,39.60
2018-04-08T10:06:08.972Z,39.40
2018-04-08T10:08:36.702Z,39.40
2018-04-08T10:11:03.724Z,40.50
2018-04-08T10:13:30.662Z,40.70
2018-04-08T10:15:58.233Z,41.60
2018-04-08T10:18:25.288Z,41.30
2018-04-08T10:20:52.328Z,41.00
2018-04-08T10:23:19.705Z,39.80
2018-04-08T10:25:46.933Z,40.60
2018-04-08T10:28:13.860Z,40.90
2018-04-08T10:30:40.788Z,41.10
2018-04-08T10:33:08.519Z,41.10
2018-04-08T10:35:35.589Z,41.20
2018-04-08T10:38:02.989Z,40.90
2018-04-08T10:40:30.200Z,40.50
2018-04-08T10:42:57.863Z,41.00
2018-04-08T10:45:24.836Z,40.90
2018-04-08T10:47:52.821Z,40.10
2018-04-08T10:50:19.837Z,40.30
2018-04-08T10:52:46.736Z,39.80
2018-04-08T10:55:13.616Z,39.80
2018-04-08T10:57:40.584Z,40.10
2018-04-08T11:00:07.865Z,40.50
2018-04-08T11:02:35.646Z,40.90
2018-04-08T11:05:04.153Z,40.70
2018-04-08T11:28:33.139Z,46.70
2018-04-08T11:31:00.180Z,46.60
2018-04-08T11:33:27.434Z,45.50
2018-04-08T11:35:54.285Z,44.50
2018-04-08T11:38:21.132Z,43.30
2018-04-08T11:40:47.985Z,42.60
2018-04-08T11:43:14.945Z,42.10
2018-04-08T11:45:41.730Z,41.30
2018-04-08T11:48:08.564Z,40.90
2018-04-08T11:50:36.208Z,40.50
2018-04-08T11:53:03.044Z,40.40
2018-04-08T11:55:29.829Z,40.40
2018-04-08T11:57:57.309Z,40.60
2018-04-08T12:00:24.079Z,40.70
2018-04-08T12:02:51.150Z,40.60
2018-04-08T12:05:18.049Z,40.40
2018-04-08T12:07:44.889Z,40.50
2018-04-08T12:10:12.617Z,40.40
2018-04-08T12:12:39.515Z,40.40
2018-04-08T12:15:06.412Z,40.50
2018-04-08T12:17:33.262Z,40.40
2018-04-08T12:20:00.260Z,40.40
2018-04-08T12:22:27.873Z,39.40
2018-04-08T12:24:54.724Z,39.30
2018-04-08T12:27:21.670Z,38.60
2018-04-08T12:29:48.631Z,39.20
2018-04-08T12:32:15.424Z,39.10
2018-04-08T12:34:42.343Z,39.70
2018-04-08T12:37:09.384Z,40.90
2018-04-08T12:39:36.245Z,41.20
2018-04-08T12:42:03.082Z,41.20
2018-04-08T12:44:30.138Z,41.60
2018-04-08T12:46:57.070Z,42.00
2018-04-08T12:49:23.887Z,41.50
2018-04-08T12:51:50.638Z,42.50
2018-04-08T12:54:17.511Z,42.80
2018-04-08T12:56:44.464Z,42.20
2018-04-08T12:59:11.315Z,42.10
2018-04-08T13:01:38.089Z,41.70
2018-04-08T13:04:05.012Z,41.20
2018-04-08T13:06:31.952Z,41.30
2018-04-08T13:08:58.799Z,39.90
2018-04-08T13:11:25.653Z,39.70
2018-04-08T13:13:52.500Z,39.90
2018-04-08T13:16:19.395Z,40.20
2018-04-08T13:18:47.005Z,39.40
2018-04-08T13:21:13.741Z,39.40
2018-04-08T13:23:40.541Z,40.10
2018-04-08T13:26:07.361Z,39.80
2018-04-08T13:28:34.309Z,39.70
2018-04-08T13:31:01.109Z,40.10
2018-04-08T13:33:28.032Z,40.20
2018-04-08T13:35:54.974Z,40.60
2018-04-08T13:38:21.847Z,41.70
2018-04-08T13:40:49.411Z,41.40
2018-04-08T13:43:17.051Z,41.30
2018-04-08T13:45:43.836Z,41.00
2018-04-08T13:48:10.594Z,41.30
2018-04-08T13:50:37.470Z,41.60
2018-04-08T13:53:04.226Z,41.50
2018-04-08T13:55:31.179Z,41.60
2018-04-08T13:57:57.920Z,41.40
2018-04-08T14:00:24.875Z,42.30
2018-04-08T14:02:51.680Z,42.80
2018-04-08T14:05:18.673Z,42.90
2018-04-08T14:07:45.630Z,42.50
2018-04-08T14:10:13.950Z,41.80
2018-04-08T14:12:41.010Z,41.60
2018-04-08T14:15:07.900Z,41.40
2018-04-08T14:17:34.856Z,40.80
2018-04-08T14:20:01.618Z,40.80
2018-04-08T14:22:28.485Z,40.10
2018-04-08T14:24:56.109Z,40.80
2018-04-08T14:27:22.994Z,40.30
2018-04-08T14:29:50.586Z,41.00
2018-04-08T14:32:17.539Z,40.40
2018-04-08T14:34:44.317Z,40.60
2018-04-08T14:37:11.290Z,40.40
2018-04-08T14:39:38.220Z,40.20
2018-04-08T14:42:05.023Z,40.90
2018-04-08T14:44:31.919Z,40.70
2018-04-08T14:46:59.064Z,40.60
2018-04-08T14:49:25.926Z,40.40
2018-04-08T14:51:52.800Z,40.00
2018-04-08T14:54:20.745Z,40.00
2018-04-08T14:56:48.004Z,40.70
2018-04-08T14:59:14.839Z,40.10
2018-04-08T15:01:46.663Z,40.70
2018-04-08T15:04:08.480Z,39.20
2018-04-08T15:06:35.927Z,40.00
2018-04-08T15:09:02.936Z,40.10
2018-04-08T15:11:29.814Z,40.10
2018-04-08T15:13:56.613Z,39.60
2018-04-08T15:16:23.435Z,39.30
2018-04-08T15:18:50.207Z,39.40
2018-04-08T15:21:17.221Z,40.00
2018-04-08T15:23:44.151Z,39.60
2018-04-08T15:26:10.904Z,39.40
2018-04-08T15:28:37.957Z,39.40
2018-04-08T15:31:04.919Z,40.10
2018-04-08T15:33:32.430Z,39.80
2018-04-08T15:35:59.409Z,40.00
2018-04-08T15:38:26.388Z,39.80
2018-04-08T15:40:53.228Z,39.40
2018-04-08T15:43:20.065Z,39.80
2018-04-08T15:45:47.087Z,39.40
2018-04-08T15:48:14.149Z,40.10
2018-04-08T15:50:41.329Z,40.00
2018-04-08T15:53:08.011Z,39.00
2018-04-08T15:55:35.831Z,39.70
2018-04-08T15:58:03.458Z,39.80
2018-04-08T16:00:30.353Z,40.20
2018-04-08T16:02:57.276Z,40.00
2018-04-08T16:05:24.039Z,40.10
2018-04-08T16:07:50.860Z,40.20
2018-04-08T16:10:17.696Z,39.60
2018-04-08T16:12:44.560Z,40.00
2018-04-08T16:15:11.397Z,39.90
2018-04-08T16:17:38.244Z,39.40
2018-04-08T16:20:05.032Z,39.20
2018-04-08T16:22:31.874Z,39.00
2018-04-08T16:24:58.700Z,39.20
2018-04-08T16:27:25.573Z,39.10
2018-04-08T16:29:52.735Z,39.30
2018-04-08T16:32:19.477Z,39.60
2018-04-08T16:34:46.275Z,39.20
2018-04-08T16:37:13.247Z,38.80
2018-04-08T16:39:40.130Z,38.70
2018-04-08T16:42:06.978Z,38.70
2018-04-08T16:44:33.738Z,37.10
2018-04-08T16:47:00.787Z,34.80
2018-04-08T16:49:27.552Z,35.40
2018-04-08T16:51:55.145Z,35.10
2018-04-08T16:54:21.954Z,35.20
2018-04-08T16:56:48.746Z,35.20
2018-04-08T16:59:15.667Z,35.80
2018-04-08T17:01:42.464Z,35.90
2018-04-08T17:04:09.408Z,35.40
2018-04-08T17:06:36.321Z,36.20
2018-04-08T17:09:03.221Z,36.20
2018-04-08T17:11:30.077Z,36.90
2018-04-08T17:13:56.833Z,36.40
2018-04-08T17:16:25.064Z,36.80
2018-04-08T17:18:51.871Z,36.90
2018-04-08T17:21:19.405Z,37.50
2018-04-08T17:23:46.265Z,37.10
2018-04-08T17:26:13.066Z,37.10
2018-04-08T17:28:40.129Z,37.10
2018-04-08T17:31:07.008Z,38.10
2018-04-08T17:33:34.050Z,38.10
2018-04-08T17:36:00.916Z,38.10
2018-04-08T17:38:27.848Z,39.00
2018-04-08T17:40:54.710Z,38.60
2018-04-08T17:43:21.524Z,39.10
2018-04-08T17:45:48.619Z,38.60
2018-04-08T17:48:15.525Z,39.50
2018-04-08T17:50:42.284Z,39.60
2018-04-08T17:53:09.042Z,39.10
2018-04-08T17:55:36.002Z,40.10
2018-04-08T17:58:02.783Z,40.40
2018-04-08T18:00:30.415Z,41.60
2018-04-08T18:02:57.259Z,41.60
2018-04-08T18:05:24.117Z,42.00
2018-04-08T18:07:51.070Z,42.30
2018-04-08T18:10:18.121Z,43.00
2018-04-08T18:12:45.016Z,44.10
2018-04-08T18:15:11.831Z,43.50
2018-04-08T18:17:39.573Z,44.20
2018-04-08T18:20:06.510Z,43.80
2018-04-08T18:22:33.482Z,43.80
2018-04-08T18:25:00.476Z,44.30
2018-04-08T18:27:27.456Z,43.80
2018-04-08T18:29:54.957Z,44.10
2018-04-08T18:32:23.365Z,43.70
2018-04-08T18:34:50.974Z,44.10
2018-04-08T18:37:17.891Z,43.70
2018-04-08T18:39:44.799Z,44.10
2018-04-08T18:42:11.746Z,43.50
2018-04-08T18:44:38.705Z,45.40
2018-04-08T18:47:05.580Z,45.90
2018-04-08T18:49:33.309Z,46.30
2018-04-08T18:52:00.367Z,46.30
2018-04-08T18:54:27.345Z,46.90
2018-04-08T18:56:54.980Z,46.50
2018-04-08T18:59:21.775Z,47.00
2018-04-08T19:01:48.571Z,47.30
2018-04-08T19:04:15.370Z,48.00
2018-04-08T19:06:42.239Z,47.60
2018-04-08T19:09:09.427Z,47.80
2018-04-08T19:11:36.270Z,48.00
2018-04-08T19:14:03.348Z,48.00
2018-04-08T19:16:30.248Z,47.80
2018-04-08T19:18:57.183Z,48.10
2018-04-08T19:21:24.099Z,48.40
2018-04-08T19:23:51.674Z,48.90
2018-04-08T19:26:19.546Z,47.80
2018-04-08T19:28:47.011Z,47.90
2018-04-08T19:31:14.593Z,48.70
2018-04-08T19:33:41.490Z,48.70
2018-04-08T19:36:08.431Z,48.50
2018-04-08T19:38:35.633Z,48.60
2018-04-08T19:41:03.261Z,48.00
2018-04-08T19:43:30.215Z,47.50
2018-04-08T19:45:57.066Z,48.20
2018-04-08T19:48:23.927Z,48.40
2018-04-08T19:50:50.865Z,48.00
2018-04-08T19:53:17.812Z,48.00
2018-04-08T19:55:44.895Z,48.30
2018-04-08T19:58:12.528Z,48.00
2018-04-08T20:00:39.494Z,47.60
2018-04-08T20:03:06.527Z,47.50
2018-04-08T20:05:33.468Z,48.30
2018-04-08T20:08:00.370Z,48.50
2018-04-08T20:10:28.016Z,48.30
2018-04-08T20:12:54.845Z,48.00
2018-04-08T20:15:21.681Z,47.80
2018-04-08T20:17:48.771Z,48.00
2018-04-08T20:20:16.411Z,48.00
2018-04-08T20:22:43.237Z,47.90
2018-04-08T20:25:10.100Z,47.80
2018-04-08T20:27:37.262Z,47.90
2018-04-08T20:30:04.308Z,48.00
2018-04-08T20:32:31.266Z,47.80
2018-04-08T20:34:58.119Z,47.60
2018-04-08T20:37:25.021Z,47.70
2018-04-08T20:39:52.044Z,47.70
2018-04-08T20:42:19.626Z,47.70
2018-04-08T20:44:46.434Z,47.70
2018-04-08T20:47:13.507Z,47.60
2018-04-08T20:49:41.242Z,47.60
2018-04-08T20:52:08.203Z,47.60
2018-04-08T20:54:35.270Z,47.70
2018-04-08T20:57:02.094Z,46.80
2018-04-08T20:59:28.979Z,47.60
2018-04-08T21:01:56.463Z,47.40
2018-04-08T21:04:23.372Z,47.40
2018-04-08T21:06:50.167Z,47.30
2018-04-08T21:09:16.991Z,46.90
2018-04-08T21:11:44.613Z,47.50
2018-04-08T21:14:11.823Z,47.60
2018-04-08T21:16:38.735Z,47.50
2018-04-08T21:19:05.779Z,46.70
2018-04-08T21:21:32.580Z,47.30
2018-04-08T21:23:59.582Z,47.30
2018-04-08T21:26:26.413Z,47.20
2018-04-08T21:28:53.372Z,47.30
2018-04-08T21:31:20.519Z,47.40
2018-04-08T21:33:47.260Z,46.80
2018-04-08T21:36:14.240Z,47.10
2018-04-08T21:38:41.098Z,46.60
2018-04-08T21:41:08.677Z,46.80
2018-04-08T21:43:36.396Z,47.60
2018-04-08T21:46:03.353Z,46.90
2018-04-08T21:48:30.297Z,46.40
2018-04-08T21:50:57.106Z,46.70
2018-04-08T21:53:24.225Z,47.00
2018-04-08T21:55:51.270Z,46.70
2018-04-08T21:58:18.101Z,46.60
2018-04-08T22:00:45.165Z,46.70
2018-04-08T22:03:11.996Z,46.80
2018-04-08T22:05:38.817Z,47.00
2018-04-08T22:08:05.645Z,46.60
2018-04-08T22:10:33.420Z,46.50
2018-04-08T22:13:00.452Z,46.40
2018-04-08T22:15:27.293Z,46.70
2018-04-08T22:17:54.123Z,46.50
2018-04-08T22:20:21.066Z,46.60
2018-04-08T22:22:48.019Z,46.50
2018-04-08T22:25:14.877Z,46.70
2018-04-08T22:27:41.714Z,46.70
2018-04-08T22:30:08.862Z,46.70
2018-04-08T22:32:35.533Z,46.70
2018-04-08T22:35:02.425Z,46.60
2018-04-08T22:37:29.235Z,46.70
2018-04-08T22:39:56.189Z,46.70
2018-04-08T22:42:23.290Z,46.90
2018-04-08T22:44:50.170Z,46.50
2018-04-08T22:47:17.216Z,46.40
2018-04-08T22:49:44.059Z,46.40
2018-04-08T22:52:10.913Z,46.50
2018-04-08T22:54:37.692Z,46.30
2018-04-08T22:57:05.251Z,46.40
2018-04-08T22:59:32.171Z,46.30
2018-04-08T23:01:59.130Z,46.30
2018-04-08T23:04:25.966Z,46.20
2018-04-08T23:06:52.814Z,46.20
2018-04-08T23:09:19.613Z,46.10
2018-04-08T23:11:46.391Z,46.20
2018-04-08T23:14:13.258Z,46.40
2018-04-08T23:16:40.050Z,46.20
2018-04-08T23:19:07.563Z,46.20
2018-04-08T23:21:34.361Z,46.10
2018-04-08T23:24:01.925Z,46.20
2018-04-08T23:26:28.652Z,46.10
2018-04-08T23:28:56.443Z,46.90
2018-04-08T23:31:24.887Z,46.10
2018-04-08T23:33:51.924Z,46.20
2018-04-08T23:36:18.883Z,46.00
2018-04-08T23:38:45.732Z,45.80
2018-04-08T23:41:12.500Z,46.00
2018-04-08T23:43:39.622Z,46.10
2018-04-08T23:46:06.572Z,46.70
2018-04-08T23:48:33.316Z,46.40
2018-04-08T23:51:00.177Z,46.10
2018-04-08T23:53:26.991Z,46.20
2018-04-08T23:55:53.809Z,46.00
2018-04-08T23:58:21.433Z,45.90
